sensor_id;sensor_type;location;lat;lon;timestamp;temperature;humidity
42227;DHT22;27892;52.378;13.122;2023-07-29T00:01:51;21.60;85.30
42227;DHT22;27892;52.378;13.122;2023-07-29T00:04:19;21.60;85.10
42227;DHT22;27892;52.378;13.122;2023-07-29T00:06:45;21.60;84.90
42227;DHT22;27892;52.378;13.122;2023-07-29T00:09:11;21.60;84.60
42227;DHT22;27892;52.378;13.122;2023-07-29T00:11:38;21.50;84.60
42227;DHT22;27892;52.378;13.122;2023-07-29T00:14:03;21.40;84.60
42227;DHT22;27892;52.378;13.122;2023-07-29T00:16:29;21.40;85.00
42227;DHT22;27892;52.378;13.122;2023-07-29T00:18:55;21.40;84.80
42227;DHT22;27892;52.378;13.122;2023-07-29T00:21:20;21.40;84.70
42227;DHT22;27892;52.378;13.122;2023-07-29T00:23:46;21.40;84.90
42227;DHT22;27892;52.378;13.122;2023-07-29T00:26:12;21.40;84.70
42227;DHT22;27892;52.378;13.122;2023-07-29T00:28:37;21.40;84.50
42227;DHT22;27892;52.378;13.122;2023-07-29T00:31:03;21.30;84.60
42227;DHT22;27892;52.378;13.122;2023-07-29T00:33:28;21.40;84.60
42227;DHT22;27892;52.378;13.122;2023-07-29T00:35:54;21.30;84.20
42227;DHT22;27892;52.378;13.122;2023-07-29T00:38:20;21.30;84.10
42227;DHT22;27892;52.378;13.122;2023-07-29T00:40:46;21.30;84.00
42227;DHT22;27892;52.378;13.122;2023-07-29T00:43:11;21.20;84.20
42227;DHT22;27892;52.378;13.122;2023-07-29T00:45:38;21.20;84.40
42227;DHT22;27892;52.378;13.122;2023-07-29T00:48:04;21.10;84.20
42227;DHT22;27892;52.378;13.122;2023-07-29T00:50:31;21.10;84.10
42227;DHT22;27892;52.378;13.122;2023-07-29T00:52:58;21.10;84.60
42227;DHT22;27892;52.378;13.122;2023-07-29T00:55:24;21.10;84.50
42227;DHT22;27892;52.378;13.122;2023-07-29T00:57:50;21.10;84.30
42227;DHT22;27892;52.378;13.122;2023-07-29T01:00:18;21.00;84.10
42227;DHT22;27892;52.378;13.122;2023-07-29T01:02:44;21.00;84.20
42227;DHT22;27892;52.378;13.122;2023-07-29T01:05:13;21.00;84.20
42227;DHT22;27892;52.378;13.122;2023-07-29T01:12:55;20.90;84.50
42227;DHT22;27892;52.378;13.122;2023-07-29T01:15:36;20.90;84.30
42227;DHT22;27892;52.378;13.122;2023-07-29T01:18:06;20.80;84.40
42227;DHT22;27892;52.378;13.122;2023-07-29T01:20:37;20.80;84.10
42227;DHT22;27892;52.378;13.122;2023-07-29T01:23:04;20.80;84.00
42227;DHT22;27892;52.378;13.122;2023-07-29T01:25:30;20.80;83.70
42227;DHT22;27892;52.378;13.122;2023-07-29T01:27:55;20.70;83.70
42227;DHT22;27892;52.378;13.122;2023-07-29T01:30:29;20.70;83.80
42227;DHT22;27892;52.378;13.122;2023-07-29T01:33:26;20.70;83.80
42227;DHT22;27892;52.378;13.122;2023-07-29T01:35:58;20.70;83.60
42227;DHT22;27892;52.378;13.122;2023-07-29T01:38:38;20.70;83.40
42227;DHT22;27892;52.378;13.122;2023-07-29T01:41:07;20.60;83.40
42227;DHT22;27892;52.378;13.122;2023-07-29T01:43:33;20.60;83.60
42227;DHT22;27892;52.378;13.122;2023-07-29T01:46:00;20.50;83.60
42227;DHT22;27892;52.378;13.122;2023-07-29T01:48:26;20.50;83.80
42227;DHT22;27892;52.378;13.122;2023-07-29T01:50:54;20.40;83.90
42227;DHT22;27892;52.378;13.122;2023-07-29T01:53:19;20.50;83.90
42227;DHT22;27892;52.378;13.122;2023-07-29T01:55:45;20.40;83.80
42227;DHT22;27892;52.378;13.122;2023-07-29T01:58:11;20.40;83.80
42227;DHT22;27892;52.378;13.122;2023-07-29T02:00:37;20.40;83.30
42227;DHT22;27892;52.378;13.122;2023-07-29T02:03:02;20.50;83.10
42227;DHT22;27892;52.378;13.122;2023-07-29T02:05:28;20.40;82.80
42227;DHT22;27892;52.378;13.122;2023-07-29T02:07:54;20.40;82.70
42227;DHT22;27892;52.378;13.122;2023-07-29T02:10:19;20.40;82.70
42227;DHT22;27892;52.378;13.122;2023-07-29T02:12:45;20.40;82.70
42227;DHT22;27892;52.378;13.122;2023-07-29T02:15:11;20.40;82.80
42227;DHT22;27892;52.378;13.122;2023-07-29T02:17:36;20.30;82.60
42227;DHT22;27892;52.378;13.122;2023-07-29T02:20:03;20.30;82.70
42227;DHT22;27892;52.378;13.122;2023-07-29T02:22:29;20.20;82.90
42227;DHT22;27892;52.378;13.122;2023-07-29T02:24:55;20.10;83.70
42227;DHT22;27892;52.378;13.122;2023-07-29T02:27:21;20.10;83.40
42227;DHT22;27892;52.378;13.122;2023-07-29T02:29:46;20.10;83.80
42227;DHT22;27892;52.378;13.122;2023-07-29T02:32:12;20.10;83.70
42227;DHT22;27892;52.378;13.122;2023-07-29T02:34:38;20.10;83.60
42227;DHT22;27892;52.378;13.122;2023-07-29T02:37:03;20.10;83.20
42227;DHT22;27892;52.378;13.122;2023-07-29T02:39:30;20.10;82.90
42227;DHT22;27892;52.378;13.122;2023-07-29T02:41:56;20.10;82.60
42227;DHT22;27892;52.378;13.122;2023-07-29T02:44:23;20.10;82.50
42227;DHT22;27892;52.378;13.122;2023-07-29T02:46:49;20.00;83.20
42227;DHT22;27892;52.378;13.122;2023-07-29T02:49:15;20.10;83.80
42227;DHT22;27892;52.378;13.122;2023-07-29T02:51:40;20.20;83.80
42227;DHT22;27892;52.378;13.122;2023-07-29T02:54:06;20.20;83.60
42227;DHT22;27892;52.378;13.122;2023-07-29T02:56:32;20.20;83.90
42227;DHT22;27892;52.378;13.122;2023-07-29T02:58:57;20.30;83.50
42227;DHT22;27892;52.378;13.122;2023-07-29T03:01:23;20.30;83.00
42227;DHT22;27892;52.378;13.122;2023-07-29T03:03:50;20.20;83.70
42227;DHT22;27892;52.378;13.122;2023-07-29T03:06:16;20.20;84.10
42227;DHT22;27892;52.378;13.122;2023-07-29T03:08:42;20.20;84.40
42227;DHT22;27892;52.378;13.122;2023-07-29T03:11:10;20.20;84.50
42227;DHT22;27892;52.378;13.122;2023-07-29T03:13:36;20.30;84.30
42227;DHT22;27892;52.378;13.122;2023-07-29T03:16:20;20.30;84.10
42227;DHT22;27892;52.378;13.122;2023-07-29T03:18:48;20.30;84.10
42227;DHT22;27892;52.378;13.122;2023-07-29T03:21:14;20.30;84.30
42227;DHT22;27892;52.378;13.122;2023-07-29T03:23:40;20.30;83.90
42227;DHT22;27892;52.378;13.122;2023-07-29T03:26:05;20.30;83.90
42227;DHT22;27892;52.378;13.122;2023-07-29T03:28:39;20.20;84.30
42227;DHT22;27892;52.378;13.122;2023-07-29T03:31:05;20.10;84.80
42227;DHT22;27892;52.378;13.122;2023-07-29T03:33:31;20.10;85.40
42227;DHT22;27892;52.378;13.122;2023-07-29T03:35:57;20.20;85.70
42227;DHT22;27892;52.378;13.122;2023-07-29T03:38:23;20.30;85.50
42227;DHT22;27892;52.378;13.122;2023-07-29T03:40:48;20.20;85.20
42227;DHT22;27892;52.378;13.122;2023-07-29T03:43:14;20.20;86.10
42227;DHT22;27892;52.378;13.122;2023-07-29T03:45:40;20.30;86.10
42227;DHT22;27892;52.378;13.122;2023-07-29T03:48:06;20.30;85.80
42227;DHT22;27892;52.378;13.122;2023-07-29T03:50:34;20.40;86.30
42227;DHT22;27892;52.378;13.122;2023-07-29T03:53:01;20.40;86.00
42227;DHT22;27892;52.378;13.122;2023-07-29T03:55:27;20.50;85.60
42227;DHT22;27892;52.378;13.122;2023-07-29T03:57:52;20.60;85.30
42227;DHT22;27892;52.378;13.122;2023-07-29T04:00:18;20.60;84.80
42227;DHT22;27892;52.378;13.122;2023-07-29T04:02:44;20.60;84.50
42227;DHT22;27892;52.378;13.122;2023-07-29T04:05:11;20.70;84.30
42227;DHT22;27892;52.378;13.122;2023-07-29T04:07:36;20.70;84.10
42227;DHT22;27892;52.378;13.122;2023-07-29T04:10:03;20.70;83.90
42227;DHT22;27892;52.378;13.122;2023-07-29T04:12:29;20.70;83.70
42227;DHT22;27892;52.378;13.122;2023-07-29T04:14:54;20.70;83.70
42227;DHT22;27892;52.378;13.122;2023-07-29T04:17:20;20.70;83.60
42227;DHT22;27892;52.378;13.122;2023-07-29T04:19:46;20.70;83.70
42227;DHT22;27892;52.378;13.122;2023-07-29T04:22:11;20.60;83.80
42227;DHT22;27892;52.378;13.122;2023-07-29T04:24:37;20.70;83.80
42227;DHT22;27892;52.378;13.122;2023-07-29T04:27:03;20.70;84.10
42227;DHT22;27892;52.378;13.122;2023-07-29T04:29:29;20.70;83.80
42227;DHT22;27892;52.378;13.122;2023-07-29T04:31:55;20.70;83.70
42227;DHT22;27892;52.378;13.122;2023-07-29T04:34:21;20.60;84.20
42227;DHT22;27892;52.378;13.122;2023-07-29T04:36:47;20.60;85.10
42227;DHT22;27892;52.378;13.122;2023-07-29T04:39:12;20.70;85.70
42227;DHT22;27892;52.378;13.122;2023-07-29T04:41:38;20.80;85.30
42227;DHT22;27892;52.378;13.122;2023-07-29T04:44:04;20.80;85.70
42227;DHT22;27892;52.378;13.122;2023-07-29T04:46:29;20.90;86.20
42227;DHT22;27892;52.378;13.122;2023-07-29T04:48:55;21.10;86.20
42227;DHT22;27892;52.378;13.122;2023-07-29T04:51:21;21.20;86.20
42227;DHT22;27892;52.378;13.122;2023-07-29T04:53:47;21.40;85.50
42227;DHT22;27892;52.378;13.122;2023-07-29T04:56:13;21.50;85.40
42227;DHT22;27892;52.378;13.122;2023-07-29T04:58:38;21.70;85.60
42227;DHT22;27892;52.378;13.122;2023-07-29T05:01:04;21.80;85.30
42227;DHT22;27892;52.378;13.122;2023-07-29T05:03:30;21.90;85.10
42227;DHT22;27892;52.378;13.122;2023-07-29T05:05:56;22.00;85.40
42227;DHT22;27892;52.378;13.122;2023-07-29T05:08:22;22.00;84.80
42227;DHT22;27892;52.378;13.122;2023-07-29T05:10:52;22.10;84.30
42227;DHT22;27892;52.378;13.122;2023-07-29T05:13:18;22.10;84.60
42227;DHT22;27892;52.378;13.122;2023-07-29T05:15:44;22.20;84.80
42227;DHT22;27892;52.378;13.122;2023-07-29T05:18:10;22.30;84.10
42227;DHT22;27892;52.378;13.122;2023-07-29T05:20:35;22.40;83.20
42227;DHT22;27892;52.378;13.122;2023-07-29T05:23:01;22.50;82.60
42227;DHT22;27892;52.378;13.122;2023-07-29T05:25:27;22.60;82.60
42227;DHT22;27892;52.378;13.122;2023-07-29T05:27:53;22.70;82.80
42227;DHT22;27892;52.378;13.122;2023-07-29T05:30:18;22.80;82.80
42227;DHT22;27892;52.378;13.122;2023-07-29T05:32:44;22.90;83.10
42227;DHT22;27892;52.378;13.122;2023-07-29T05:35:10;23.00;82.00
42227;DHT22;27892;52.378;13.122;2023-07-29T05:37:39;23.00;82.00
42227;DHT22;27892;52.378;13.122;2023-07-29T05:40:06;23.00;82.30
42227;DHT22;27892;52.378;13.122;2023-07-29T05:42:32;23.10;82.30
42227;DHT22;27892;52.378;13.122;2023-07-29T05:44:58;23.10;81.30
42227;DHT22;27892;52.378;13.122;2023-07-29T05:47:24;23.10;82.40
42227;DHT22;27892;52.378;13.122;2023-07-29T05:49:49;23.20;82.80
42227;DHT22;27892;52.378;13.122;2023-07-29T05:52:15;23.40;82.50
42227;DHT22;27892;52.378;13.122;2023-07-29T05:54:41;23.50;82.10
42227;DHT22;27892;52.378;13.122;2023-07-29T05:57:12;23.70;82.60
42227;DHT22;27892;52.378;13.122;2023-07-29T05:59:38;24.00;81.70
42227;DHT22;27892;52.378;13.122;2023-07-29T06:02:04;24.20;80.60
42227;DHT22;27892;52.378;13.122;2023-07-29T06:04:30;24.60;80.90
42227;DHT22;27892;52.378;13.122;2023-07-29T06:06:56;25.90;76.90
42227;DHT22;27892;52.378;13.122;2023-07-29T06:09:22;27.50;71.00
42227;DHT22;27892;52.378;13.122;2023-07-29T06:11:48;29.20;64.30
42227;DHT22;27892;52.378;13.122;2023-07-29T06:14:14;30.40;61.00
42227;DHT22;27892;52.378;13.122;2023-07-29T06:16:39;31.50;57.40
42227;DHT22;27892;52.378;13.122;2023-07-29T06:19:05;32.50;55.00
42227;DHT22;27892;52.378;13.122;2023-07-29T06:21:31;33.30;50.20
42227;DHT22;27892;52.378;13.122;2023-07-29T06:23:56;33.90;51.00
42227;DHT22;27892;52.378;13.122;2023-07-29T06:26:22;34.60;49.30
42227;DHT22;27892;52.378;13.122;2023-07-29T06:28:48;34.90;47.70
42227;DHT22;27892;52.378;13.122;2023-07-29T06:31:14;35.40;46.80
42227;DHT22;27892;52.378;13.122;2023-07-29T06:33:40;35.90;44.90
42227;DHT22;27892;52.378;13.122;2023-07-29T06:36:05;36.40;44.80
42227;DHT22;27892;52.378;13.122;2023-07-29T06:38:31;37.20;43.20
42227;DHT22;27892;52.378;13.122;2023-07-29T06:40:57;37.80;41.00
42227;DHT22;27892;52.378;13.122;2023-07-29T06:43:23;38.00;39.80
42227;DHT22;27892;52.378;13.122;2023-07-29T06:45:48;38.00;39.80
42227;DHT22;27892;52.378;13.122;2023-07-29T06:48:14;37.90;39.80
42227;DHT22;27892;52.378;13.122;2023-07-29T06:50:40;37.90;40.40
42227;DHT22;27892;52.378;13.122;2023-07-29T06:53:06;38.30;40.10
42227;DHT22;27892;52.378;13.122;2023-07-29T06:55:32;37.80;39.30
42227;DHT22;27892;52.378;13.122;2023-07-29T06:57:57;37.00;40.80
42227;DHT22;27892;52.378;13.122;2023-07-29T07:00:23;37.00;41.30
42227;DHT22;27892;52.378;13.122;2023-07-29T07:02:49;37.20;41.50
42227;DHT22;27892;52.378;13.122;2023-07-29T07:05:14;37.70;40.60
42227;DHT22;27892;52.378;13.122;2023-07-29T07:07:40;37.80;39.30
42227;DHT22;27892;52.378;13.122;2023-07-29T07:10:06;37.90;39.90
42227;DHT22;27892;52.378;13.122;2023-07-29T07:12:32;38.10;39.40
42227;DHT22;27892;52.378;13.122;2023-07-29T07:14:57;38.10;38.90
42227;DHT22;27892;52.378;13.122;2023-07-29T07:17:23;37.90;39.60
42227;DHT22;27892;52.378;13.122;2023-07-29T07:19:49;38.50;39.00
42227;DHT22;27892;52.378;13.122;2023-07-29T07:22:15;38.60;37.50
42227;DHT22;27892;52.378;13.122;2023-07-29T07:24:41;37.30;38.20
42227;DHT22;27892;52.378;13.122;2023-07-29T07:27:07;37.10;39.70
42227;DHT22;27892;52.378;13.122;2023-07-29T07:29:32;36.20;39.60
42227;DHT22;27892;52.378;13.122;2023-07-29T07:31:58;36.40;42.50
42227;DHT22;27892;52.378;13.122;2023-07-29T07:34:24;36.20;41.50
42227;DHT22;27892;52.378;13.122;2023-07-29T07:36:50;35.80;42.30
42227;DHT22;27892;52.378;13.122;2023-07-29T07:39:15;35.30;42.10
42227;DHT22;27892;52.378;13.122;2023-07-29T07:41:41;35.30;43.20
42227;DHT22;27892;52.378;13.122;2023-07-29T07:44:07;36.20;41.90
42227;DHT22;27892;52.378;13.122;2023-07-29T07:46:33;35.80;40.80
42227;DHT22;27892;52.378;13.122;2023-07-29T07:48:59;36.30;41.90
42227;DHT22;27892;52.378;13.122;2023-07-29T07:51:24;36.30;41.10
42227;DHT22;27892;52.378;13.122;2023-07-29T07:53:50;36.80;39.90
42227;DHT22;27892;52.378;13.122;2023-07-29T07:56:16;37.00;39.80
42227;DHT22;27892;52.378;13.122;2023-07-29T07:58:41;37.20;39.00
42227;DHT22;27892;52.378;13.122;2023-07-29T08:01:08;37.90;40.20
42227;DHT22;27892;52.378;13.122;2023-07-29T08:03:35;39.20;38.50
42227;DHT22;27892;52.378;13.122;2023-07-29T08:06:02;40.40;36.60
42227;DHT22;27892;52.378;13.122;2023-07-29T08:08:28;40.40;33.60
42227;DHT22;27892;52.378;13.122;2023-07-29T08:10:54;38.40;35.40
42227;DHT22;27892;52.378;13.122;2023-07-29T08:13:22;36.40;39.20
42227;DHT22;27892;52.378;13.122;2023-07-29T08:15:48;35.30;40.40
42227;DHT22;27892;52.378;13.122;2023-07-29T08:18:15;34.00;41.90
42227;DHT22;27892;52.378;13.122;2023-07-29T08:20:55;32.80;43.60
42227;DHT22;27892;52.378;13.122;2023-07-29T08:23:21;32.10;45.90
42227;DHT22;27892;52.378;13.122;2023-07-29T08:25:54;31.70;47.90
42227;DHT22;27892;52.378;13.122;2023-07-29T08:28:22;31.50;47.60
42227;DHT22;27892;52.378;13.122;2023-07-29T08:30:48;31.00;48.10
42227;DHT22;27892;52.378;13.122;2023-07-29T08:33:14;30.50;48.80
42227;DHT22;27892;52.378;13.122;2023-07-29T08:35:40;29.90;50.60
42227;DHT22;27892;52.378;13.122;2023-07-29T08:38:06;29.60;52.20
42227;DHT22;27892;52.378;13.122;2023-07-29T08:40:34;29.40;53.10
42227;DHT22;27892;52.378;13.122;2023-07-29T08:43:04;29.20;54.10
42227;DHT22;27892;52.378;13.122;2023-07-29T08:45:35;29.30;54.80
42227;DHT22;27892;52.378;13.122;2023-07-29T08:48:03;29.50;55.30
42227;DHT22;27892;52.378;13.122;2023-07-29T08:50:32;29.40;55.00
42227;DHT22;27892;52.378;13.122;2023-07-29T08:52:59;29.30;55.50
42227;DHT22;27892;52.378;13.122;2023-07-29T08:55:25;29.20;55.70
42227;DHT22;27892;52.378;13.122;2023-07-29T08:57:51;29.20;55.90
42227;DHT22;27892;52.378;13.122;2023-07-29T09:00:17;29.20;56.10
42227;DHT22;27892;52.378;13.122;2023-07-29T09:02:43;29.20;55.60
42227;DHT22;27892;52.378;13.122;2023-07-29T09:05:09;29.20;56.20
42227;DHT22;27892;52.378;13.122;2023-07-29T09:07:36;29.50;56.10
42227;DHT22;27892;52.378;13.122;2023-07-29T09:10:02;29.60;55.00
42227;DHT22;27892;52.378;13.122;2023-07-29T09:12:31;29.80;54.50
42227;DHT22;27892;52.378;13.122;2023-07-29T09:14:56;30.00;55.00
42227;DHT22;27892;52.378;13.122;2023-07-29T09:17:22;30.10;55.00
42227;DHT22;27892;52.378;13.122;2023-07-29T09:19:50;30.20;54.80
42227;DHT22;27892;52.378;13.122;2023-07-29T09:22:20;30.10;54.10
42227;DHT22;27892;52.378;13.122;2023-07-29T09:24:46;30.10;53.00
42227;DHT22;27892;52.378;13.122;2023-07-29T09:27:28;29.90;52.20
42227;DHT22;27892;52.378;13.122;2023-07-29T09:29:57;29.70;52.30
42227;DHT22;27892;52.378;13.122;2023-07-29T09:32:24;29.60;53.40
42227;DHT22;27892;52.378;13.122;2023-07-29T09:34:51;29.70;55.00
42227;DHT22;27892;52.378;13.122;2023-07-29T09:37:20;29.90;55.20
42227;DHT22;27892;52.378;13.122;2023-07-29T09:39:47;30.10;55.10
42227;DHT22;27892;52.378;13.122;2023-07-29T09:42:18;30.30;53.10
42227;DHT22;27892;52.378;13.122;2023-07-29T09:44:44;30.30;53.10
42227;DHT22;27892;52.378;13.122;2023-07-29T09:47:09;30.50;52.70
42227;DHT22;27892;52.378;13.122;2023-07-29T09:49:43;30.40;51.40
42227;DHT22;27892;52.378;13.122;2023-07-29T09:52:09;30.10;51.50
42227;DHT22;27892;52.378;13.122;2023-07-29T09:54:36;29.80;51.20
42227;DHT22;27892;52.378;13.122;2023-07-29T09:57:02;29.50;52.50
42227;DHT22;27892;52.378;13.122;2023-07-29T09:59:28;29.20;52.90
42227;DHT22;27892;52.378;13.122;2023-07-29T10:01:58;29.20;53.80
42227;DHT22;27892;52.378;13.122;2023-07-29T10:04:24;29.30;54.20
42227;DHT22;27892;52.378;13.122;2023-07-29T10:06:52;29.40;54.50
42227;DHT22;27892;52.378;13.122;2023-07-29T10:09:19;29.50;53.80
42227;DHT22;27892;52.378;13.122;2023-07-29T10:11:45;29.60;53.60
42227;DHT22;27892;52.378;13.122;2023-07-29T10:14:11;29.60;53.10
42227;DHT22;27892;52.378;13.122;2023-07-29T10:16:39;29.80;53.90
42227;DHT22;27892;52.378;13.122;2023-07-29T10:19:07;29.80;52.20
42227;DHT22;27892;52.378;13.122;2023-07-29T10:21:34;29.90;52.00
42227;DHT22;27892;52.378;13.122;2023-07-29T10:24:03;29.90;51.70
42227;DHT22;27892;52.378;13.122;2023-07-29T10:26:31;30.00;51.50
42227;DHT22;27892;52.378;13.122;2023-07-29T10:28:59;30.00;52.10
42227;DHT22;27892;52.378;13.122;2023-07-29T10:31:30;30.20;51.60
42227;DHT22;27892;52.378;13.122;2023-07-29T10:33:56;30.20;51.00
42227;DHT22;27892;52.378;13.122;2023-07-29T10:36:22;30.10;50.50
42227;DHT22;27892;52.378;13.122;2023-07-29T10:38:49;29.70;51.00
42227;DHT22;27892;52.378;13.122;2023-07-29T10:41:15;29.50;51.70
42227;DHT22;27892;52.378;13.122;2023-07-29T10:43:40;29.30;51.90
42227;DHT22;27892;52.378;13.122;2023-07-29T10:46:21;29.10;52.30
42227;DHT22;27892;52.378;13.122;2023-07-29T10:51:23;28.60;55.90
42227;DHT22;27892;52.378;13.122;2023-07-29T10:56:47;26.40;62.90
42227;DHT22;27892;52.378;13.122;2023-07-29T11:02:17;25.30;70.70
42227;DHT22;27892;52.378;13.122;2023-07-29T11:04:47;25.00;74.70
42227;DHT22;27892;52.378;13.122;2023-07-29T11:09:58;25.10;82.20
42227;DHT22;27892;52.378;13.122;2023-07-29T11:12:41;25.30;84.60
42227;DHT22;27892;52.378;13.122;2023-07-29T11:20:08;25.50;85.30
42227;DHT22;27892;52.378;13.122;2023-07-29T11:22:34;25.50;86.20
42227;DHT22;27892;52.378;13.122;2023-07-29T11:25:00;25.60;87.50
42227;DHT22;27892;52.378;13.122;2023-07-29T11:27:26;25.70;86.00
42227;DHT22;27892;52.378;13.122;2023-07-29T11:30:06;25.70;85.20
42227;DHT22;27892;52.378;13.122;2023-07-29T11:32:32;25.70;85.20
42227;DHT22;27892;52.378;13.122;2023-07-29T11:35:18;25.60;84.80
42227;DHT22;27892;52.378;13.122;2023-07-29T11:37:45;25.60;86.50
42227;DHT22;27892;52.378;13.122;2023-07-29T11:40:21;25.50;87.00
42227;DHT22;27892;52.378;13.122;2023-07-29T11:42:49;25.50;87.00
42227;DHT22;27892;52.378;13.122;2023-07-29T11:45:16;25.60;87.60
42227;DHT22;27892;52.378;13.122;2023-07-29T11:47:42;25.60;86.80
42227;DHT22;27892;52.378;13.122;2023-07-29T11:50:10;25.60;88.40
42227;DHT22;27892;52.378;13.122;2023-07-29T11:52:37;25.60;87.00
42227;DHT22;27892;52.378;13.122;2023-07-29T11:55:04;25.60;87.10
42227;DHT22;27892;52.378;13.122;2023-07-29T11:57:31;25.60;86.80
42227;DHT22;27892;52.378;13.122;2023-07-29T11:59:58;25.60;86.80
42227;DHT22;27892;52.378;13.122;2023-07-29T12:02:25;25.60;86.50
42227;DHT22;27892;52.378;13.122;2023-07-29T12:04:52;25.60;86.20
42227;DHT22;27892;52.378;13.122;2023-07-29T12:07:19;25.50;85.90
42227;DHT22;27892;52.378;13.122;2023-07-29T12:09:46;25.50;86.40
42227;DHT22;27892;52.378;13.122;2023-07-29T12:12:12;25.40;85.40
42227;DHT22;27892;52.378;13.122;2023-07-29T12:14:38;25.40;85.50
42227;DHT22;27892;52.378;13.122;2023-07-29T12:17:05;25.40;86.60
42227;DHT22;27892;52.378;13.122;2023-07-29T12:19:33;25.60;86.70
42227;DHT22;27892;52.378;13.122;2023-07-29T12:22:00;25.70;85.10
42227;DHT22;27892;52.378;13.122;2023-07-29T12:24:25;25.80;84.90
42227;DHT22;27892;52.378;13.122;2023-07-29T12:26:51;26.00;84.40
42227;DHT22;27892;52.378;13.122;2023-07-29T12:29:18;26.00;81.80
42227;DHT22;27892;52.378;13.122;2023-07-29T12:31:48;26.20;80.00
42227;DHT22;27892;52.378;13.122;2023-07-29T12:34:20;26.50;83.10
42227;DHT22;27892;52.378;13.122;2023-07-29T12:36:48;26.70;77.50
42227;DHT22;27892;52.378;13.122;2023-07-29T12:39:21;26.80;77.00
42227;DHT22;27892;52.378;13.122;2023-07-29T12:41:48;26.70;74.60
42227;DHT22;27892;52.378;13.122;2023-07-29T12:44:14;26.60;74.20
42227;DHT22;27892;52.378;13.122;2023-07-29T12:46:40;26.60;74.00
42227;DHT22;27892;52.378;13.122;2023-07-29T12:49:06;26.70;76.30
42227;DHT22;27892;52.378;13.122;2023-07-29T12:51:32;26.80;74.80
42227;DHT22;27892;52.378;13.122;2023-07-29T12:53:58;26.90;75.60
42227;DHT22;27892;52.378;13.122;2023-07-29T12:56:24;27.10;75.40
42227;DHT22;27892;52.378;13.122;2023-07-29T12:58:49;27.20;74.40
42227;DHT22;27892;52.378;13.122;2023-07-29T13:01:15;27.50;74.70
42227;DHT22;27892;52.378;13.122;2023-07-29T13:03:44;27.70;73.30
42227;DHT22;27892;52.378;13.122;2023-07-29T13:06:10;27.80;72.10
42227;DHT22;27892;52.378;13.122;2023-07-29T13:08:36;28.00;72.90
42227;DHT22;27892;52.378;13.122;2023-07-29T13:11:02;28.30;73.50
42227;DHT22;27892;52.378;13.122;2023-07-29T13:13:28;28.40;70.70
42227;DHT22;27892;52.378;13.122;2023-07-29T13:15:54;28.60;70.90
42227;DHT22;27892;52.378;13.122;2023-07-29T13:18:21;28.60;67.10
42227;DHT22;27892;52.378;13.122;2023-07-29T13:20:47;28.70;69.40
42227;DHT22;27892;52.378;13.122;2023-07-29T13:23:13;28.90;69.00
42227;DHT22;27892;52.378;13.122;2023-07-29T13:25:38;29.30;67.40
42227;DHT22;27892;52.378;13.122;2023-07-29T13:28:04;29.70;66.40
42227;DHT22;27892;52.378;13.122;2023-07-29T13:30:31;29.60;61.70
42227;DHT22;27892;52.378;13.122;2023-07-29T13:32:56;29.40;63.10
42227;DHT22;27892;52.378;13.122;2023-07-29T13:35:22;29.40;64.20
42227;DHT22;27892;52.378;13.122;2023-07-29T13:37:48;29.40;60.40
42227;DHT22;27892;52.378;13.122;2023-07-29T13:40:14;29.10;60.10
42227;DHT22;27892;52.378;13.122;2023-07-29T13:42:39;28.70;61.20
42227;DHT22;27892;52.378;13.122;2023-07-29T13:45:05;28.60;63.30
42227;DHT22;27892;52.378;13.122;2023-07-29T13:47:31;28.60;63.70
42227;DHT22;27892;52.378;13.122;2023-07-29T13:49:57;28.80;65.70
42227;DHT22;27892;52.378;13.122;2023-07-29T13:52:22;29.00;66.00
42227;DHT22;27892;52.378;13.122;2023-07-29T13:54:48;29.30;67.20
42227;DHT22;27892;52.378;13.122;2023-07-29T13:57:14;29.90;66.50
42227;DHT22;27892;52.378;13.122;2023-07-29T13:59:39;30.60;61.40
42227;DHT22;27892;52.378;13.122;2023-07-29T14:02:05;31.40;59.80
42227;DHT22;27892;52.378;13.122;2023-07-29T14:04:32;32.20;58.40
42227;DHT22;27892;52.378;13.122;2023-07-29T14:06:59;32.80;56.80
42227;DHT22;27892;52.378;13.122;2023-07-29T14:09:28;32.80;55.90
42227;DHT22;27892;52.378;13.122;2023-07-29T14:11:54;32.40;53.90
42227;DHT22;27892;52.378;13.122;2023-07-29T14:14:20;31.80;54.60
42227;DHT22;27892;52.378;13.122;2023-07-29T14:16:46;31.20;55.80
42227;DHT22;27892;52.378;13.122;2023-07-29T14:19:13;31.20;55.40
42227;DHT22;27892;52.378;13.122;2023-07-29T14:21:39;31.30;54.80
42227;DHT22;27892;52.378;13.122;2023-07-29T14:24:05;31.20;55.70
42227;DHT22;27892;52.378;13.122;2023-07-29T14:26:31;30.80;56.20
42227;DHT22;27892;52.378;13.122;2023-07-29T14:28:57;30.50;56.60
42227;DHT22;27892;52.378;13.122;2023-07-29T14:31:22;30.40;55.80
42227;DHT22;27892;52.378;13.122;2023-07-29T14:33:48;30.30;57.30
42227;DHT22;27892;52.378;13.122;2023-07-29T14:36:15;30.40;57.70
42227;DHT22;27892;52.378;13.122;2023-07-29T14:38:42;30.50;56.20
42227;DHT22;27892;52.378;13.122;2023-07-29T14:41:08;30.60;55.60
42227;DHT22;27892;52.378;13.122;2023-07-29T14:43:35;30.30;57.60
42227;DHT22;27892;52.378;13.122;2023-07-29T14:46:01;30.00;58.20
42227;DHT22;27892;52.378;13.122;2023-07-29T14:48:27;29.60;59.80
42227;DHT22;27892;52.378;13.122;2023-07-29T14:50:53;29.00;59.70
42227;DHT22;27892;52.378;13.122;2023-07-29T14:53:19;28.80;61.80
42227;DHT22;27892;52.378;13.122;2023-07-29T14:55:45;28.60;62.10
42227;DHT22;27892;52.378;13.122;2023-07-29T14:58:11;28.40;62.20
42227;DHT22;27892;52.378;13.122;2023-07-29T15:00:37;28.30;61.60
42227;DHT22;27892;52.378;13.122;2023-07-29T15:03:03;28.30;62.90
42227;DHT22;27892;52.378;13.122;2023-07-29T15:05:28;28.40;63.70
42227;DHT22;27892;52.378;13.122;2023-07-29T15:07:54;28.50;63.30
42227;DHT22;27892;52.378;13.122;2023-07-29T15:10:20;28.50;62.20
42227;DHT22;27892;52.378;13.122;2023-07-29T15:12:47;28.60;63.90
42227;DHT22;27892;52.378;13.122;2023-07-29T15:15:12;28.60;62.70
42227;DHT22;27892;52.378;13.122;2023-07-29T15:17:38;28.60;63.00
42227;DHT22;27892;52.378;13.122;2023-07-29T15:20:04;28.60;64.30
42227;DHT22;27892;52.378;13.122;2023-07-29T15:22:31;28.50;63.90
42227;DHT22;27892;52.378;13.122;2023-07-29T15:25:00;27.90;61.60
42227;DHT22;27892;52.378;13.122;2023-07-29T15:27:29;26.40;61.20
42227;DHT22;27892;52.378;13.122;2023-07-29T15:29:55;25.00;66.70
42227;DHT22;27892;52.378;13.122;2023-07-29T15:32:22;24.10;71.30
42227;DHT22;27892;52.378;13.122;2023-07-29T15:34:48;23.70;75.70